Time;durP1;ratioP1;P1;durP2;ratioP2;P2;SDS_P1;SDS_P2;PMS_P1;PMS_P2;Temp;Humidity;BMP_temperature;BMP_pressure;BME280_temperature;BME280_humidity;BME280_pressure;Samples;Min_cycle;Max_cycle;Signal;HPM_P1;HPM_P2
2023/10/15 00:00:40;;;;;;;8.90;2.40;;;8.80;99.90;;;;;;5064491;28;20461;-58
2023/10/15 00:03:09;;;;;;;9.30;1.80;;;8.80;99.90;;;;;;5066202;28;20911;-58
2023/10/15 00:05:35;;;;;;;8.80;2.23;;;8.80;99.90;;;;;;5057586;28;20175;-57
2023/10/15 00:08:01;;;;;;;3.60;2.00;;;8.80;99.90;;;;;;5067491;28;20476;-58
2023/10/15 00:10:27;;;;;;;7.40;2.50;;;8.80;99.90;;;;;;5066766;28;20516;-57
2023/10/15 00:12:55;;;;;;;4.87;2.07;;;8.70;99.90;;;;;;5065620;28;20187;-58
2023/10/15 00:15:25;;;;;;;2.23;1.60;;;8.70;99.90;;;;;;5063227;28;20428;-58
2023/10/15 00:17:57;;;;;;;4.60;2.03;;;8.70;99.90;;;;;;5066371;28;20459;-57
2023/10/15 00:20:31;;;;;;;8.63;2.30;;;8.70;99.90;;;;;;5062293;28;20646;-58
2023/10/15 00:22:58;;;;;;;5.80;2.00;;;8.60;99.90;;;;;;5063143;28;20460;-58
2023/10/15 00:25:23;;;;;;;6.83;2.10;;;8.60;99.90;;;;;;5063940;28;20886;-57
2023/10/15 00:27:52;;;;;;;8.30;2.63;;;8.60;99.90;;;;;;5063065;28;20981;-58
2023/10/15 00:30:19;;;;;;;7.40;2.20;;;8.60;99.90;;;;;;5064014;28;20336;-58
2023/10/15 00:32:46;;;;;;;5.60;2.50;;;8.60;99.90;;;;;;5060337;28;20416;-57
2023/10/15 00:35:13;;;;;;;4.70;2.50;;;8.60;99.90;;;;;;5063082;28;20490;-57
2023/10/15 00:38:07;;;;;;;8.97;2.60;;;8.60;99.90;;;;;;5065157;28;20926;-58
2023/10/15 00:40:27;;;;;;;8.13;2.10;;;8.60;99.90;;;;;;5054411;28;20535;-58
2023/10/15 00:42:54;;;;;;;13.90;2.60;;;8.60;99.90;;;;;;5064040;28;20444;-58
2023/10/15 00:45:20;;;;;;;4.73;2.33;;;8.60;99.90;;;;;;5065740;28;20443;-58
2023/10/15 00:48:00;;;;;;;7.10;2.83;;;8.60;99.90;;;;;;5067165;28;20459;-58
2023/10/15 00:50:28;;;;;;;5.20;2.17;;;8.60;99.90;;;;;;5073108;22;20500;-52
2023/10/15 00:52:57;;;;;;;7.50;2.53;;;8.60;99.90;;;;;;5046020;28;20490;-53
2023/10/15 00:55:23;;;;;;;6.13;1.93;;;8.60;99.90;;;;;;5044464;28;20629;-52
2023/10/15 00:57:55;;;;;;;5.17;1.90;;;8.70;99.90;;;;;;5045636;28;20417;-52
2023/10/15 01:00:52;;;;;;;10.33;2.30;;;8.60;99.90;;;;;;5046386;28;20500;-54
2023/10/15 01:03:33;;;;;;;14.93;3.70;;;8.60;99.90;;;;;;5043176;28;20426;-55
2023/10/15 01:06:05;;;;;;;3.00;2.30;;;8.60;99.90;;;;;;5035813;28;20479;-54
2023/10/15 01:08:40;;;;;;;8.07;2.00;;;8.60;99.90;;;;;;5037239;28;20549;-53
2023/10/15 01:11:15;;;;;;;6.03;2.80;;;8.60;99.90;;;;;;5046980;28;20430;-53
2023/10/15 01:13:41;;;;;;;5.07;2.33;;;8.50;99.90;;;;;;5042623;28;20490;-54
2023/10/15 01:16:12;;;;;;;8.23;2.00;;;8.50;99.90;;;;;;5027058;28;20910;-54
2023/10/15 01:18:39;;;;;;;5.00;2.50;;;8.50;99.90;;;;;;5047970;28;20567;-53
2023/10/15 01:21:09;;;;;;;3.20;1.63;;;8.50;99.90;;;;;;5050682;28;20518;-55
2023/10/15 01:26:09;;;;;;;4.40;1.90;;;8.50;99.90;;;;;;5044737;28;20417;-53
2023/10/15 01:28:38;;;;;;;6.40;2.17;;;8.50;99.90;;;;;;5038123;28;20478;-53
2023/10/15 01:31:07;;;;;;;6.13;2.30;;;8.50;99.90;;;;;;5043290;28;20451;-52
2023/10/15 01:33:46;;;;;;;7.90;2.40;;;8.50;99.90;;;;;;5045752;28;20440;-55
2023/10/15 01:36:16;;;;;;;10.73;2.77;;;8.50;99.90;;;;;;5044116;28;20439;-53
2023/10/15 01:38:44;;;;;;;3.60;2.00;;;8.50;99.90;;;;;;5037153;28;21216;-54
2023/10/15 01:41:13;;;;;;;7.20;2.30;;;8.50;99.90;;;;;;5038743;28;21163;-54
2023/10/15 01:43:40;;;;;;;3.67;1.90;;;8.50;99.90;;;;;;5038613;28;20439;-55
2023/10/15 01:46:10;;;;;;;5.40;2.00;;;8.50;99.90;;;;;;5042519;28;20420;-53
2023/10/15 01:48:39;;;;;;;4.93;2.87;;;8.50;99.90;;;;;;5046420;28;20933;-53
2023/10/15 01:51:06;;;;;;;4.70;2.33;;;8.50;99.90;;;;;;5047833;28;22309;-54
2023/10/15 01:53:39;;;;;;;4.60;2.10;;;8.50;99.90;;;;;;5040665;28;20500;-53
2023/10/15 01:56:06;;;;;;;9.60;2.43;;;8.50;99.90;;;;;;5042223;28;21802;-54
2023/10/15 01:58:32;;;;;;;4.13;1.90;;;8.50;99.90;;;;;;5039409;28;20451;-53
2023/10/15 02:01:09;;;;;;;5.70;2.13;;;8.50;99.90;;;;;;5040652;28;20445;-53
2023/10/15 02:03:37;;;;;;;8.40;3.43;;;8.50;99.90;;;;;;5047085;28;20170;-52
2023/10/15 02:06:06;;;;;;;13.03;2.60;;;8.50;99.90;;;;;;5042031;28;20429;-51
2023/10/15 02:08:33;;;;;;;5.10;2.40;;;8.50;99.90;;;;;;5042801;28;20446;-52
2023/10/15 02:11:08;;;;;;;5.73;2.27;;;8.50;99.90;;;;;;5037181;28;20843;-52
2023/10/15 02:13:37;;;;;;;3.30;1.90;;;8.50;99.90;;;;;;5047289;28;20416;-52
2023/10/15 02:16:08;;;;;;;2.40;2.03;;;8.50;99.90;;;;;;5045149;28;20551;-53
2023/10/15 02:18:35;;;;;;;9.60;2.13;;;8.40;99.90;;;;;;5045699;28;20444;-53
2023/10/15 02:21:01;;;;;;;5.00;2.40;;;8.40;99.90;;;;;;5050373;28;20456;-53
2023/10/15 02:23:28;;;;;;;3.53;1.93;;;8.50;99.90;;;;;;5049491;28;20410;-52
2023/10/15 02:25:58;;;;;;;3.70;2.00;;;8.40;99.90;;;;;;5028460;28;20248;-52
2023/10/15 02:28:31;;;;;;;3.33;1.93;;;8.40;99.90;;;;;;5046002;28;20429;-53
2023/10/15 02:33:27;;;;;;;13.03;2.47;;;8.40;99.90;;;;;;5044387;28;20429;-52
2023/10/15 02:35:54;;;;;;;6.60;3.40;;;8.30;99.90;;;;;;5041369;28;21160;-52
2023/10/15 02:38:26;;;;;;;6.03;2.27;;;8.30;99.90;;;;;;5041519;28;20519;-53
2023/10/15 02:41:05;;;;;;;6.13;2.20;;;8.30;99.90;;;;;;5038651;28;21194;-52
2023/10/15 02:43:32;;;;;;;4.23;2.10;;;8.30;99.90;;;;;;5043133;28;20409;-53
2023/10/15 02:46:01;;;;;;;5.63;2.20;;;8.30;99.90;;;;;;5049243;28;20424;-53
2023/10/15 02:48:31;;;;;;;7.33;2.20;;;8.30;99.90;;;;;;5047402;28;20429;-52
2023/10/15 02:51:01;;;;;;;8.90;2.17;;;8.30;99.90;;;;;;5049183;28;20499;-53
2023/10/15 02:53:32;;;;;;;7.13;2.43;;;8.30;99.90;;;;;;5047130;28;20474;-53
2023/10/15 02:55:58;;;;;;;3.83;2.27;;;8.30;99.90;;;;;;5049785;28;20463;-54
2023/10/15 02:58:28;;;;;;;3.60;2.30;;;8.30;99.90;;;;;;5049251;28;20492;-54
2023/10/15 03:01:00;;;;;;;11.90;3.47;;;8.30;99.90;;;;;;5054630;28;20450;-53
2023/10/15 03:03:33;;;;;;;8.90;2.70;;;8.30;99.90;;;;;;5051127;28;20461;-52
2023/10/15 03:06:00;;;;;;;3.20;2.40;;;8.30;99.90;;;;;;5049213;28;20452;-54
2023/10/15 03:08:31;;;;;;;4.00;2.30;;;8.30;99.90;;;;;;5044479;28;20455;-54
2023/10/15 03:11:12;;;;;;;5.40;2.37;;;8.30;99.90;;;;;;5047330;28;20646;-54
2023/10/15 03:13:56;;;;;;;5.20;2.50;;;8.30;99.90;;;;;;5047905;28;20952;-53
2023/10/15 03:16:26;;;;;;;5.47;2.03;;;8.30;99.90;;;;;;5040170;28;20437;-54
2023/10/15 03:18:52;;;;;;;4.63;2.27;;;8.30;99.90;;;;;;5041278;28;20456;-53
2023/10/15 03:21:26;;;;;;;8.33;2.10;;;8.40;99.90;;;;;;5040118;28;20842;-54
2023/10/15 03:23:56;;;;;;;8.87;2.57;;;8.40;99.90;;;;;;5041615;28;20433;-54
2023/10/15 03:26:31;;;;;;;5.87;2.50;;;8.40;99.90;;;;;;5039534;28;20513;-53
2023/10/15 03:29:00;;;;;;;6.40;2.40;;;8.40;99.90;;;;;;5040318;28;20426;-54
2023/10/15 03:31:32;;;;;;;6.43;2.13;;;8.40;99.90;;;;;;5038911;28;20448;-54
2023/10/15 03:36:30;;;;;;;10.23;2.57;;;8.40;99.90;;;;;;5039813;28;20552;-52
2023/10/15 03:38:58;;;;;;;18.83;2.60;;;8.40;99.90;;;;;;5042490;28;20469;-54
2023/10/15 03:41:28;;;;;;;5.07;2.33;;;8.30;99.90;;;;;;5039109;28;20441;-53
2023/10/15 03:44:01;;;;;;;5.87;2.13;;;8.30;99.90;;;;;;5037970;28;20422;-53
2023/10/15 03:46:33;;;;;;;6.13;2.50;;;8.30;99.90;;;;;;5040856;28;20432;-53
2023/10/15 03:48:59;;;;;;;3.80;2.10;;;8.30;99.90;;;;;;5042066;28;21039;-53
2023/10/15 03:51:27;;;;;;;8.10;2.63;;;8.20;99.90;;;;;;5040679;28;20516;-53
2023/10/15 03:53:52;;;;;;;8.50;3.17;;;8.20;99.90;;;;;;5040994;28;20947;-53
2023/10/15 03:56:27;;;;;;;9.80;2.80;;;8.20;99.90;;;;;;5044525;28;20442;-55
2023/10/15 03:58:52;;;;;;;7.20;2.30;;;8.20;99.90;;;;;;5041351;28;20281;-53
2023/10/15 04:01:19;;;;;;;7.20;2.13;;;8.20;99.90;;;;;;5050711;28;20519;-53
2023/10/15 04:03:48;;;;;;;4.10;2.30;;;8.20;99.90;;;;;;5044889;28;20479;-55
2023/10/15 04:06:15;;;;;;;4.53;2.00;;;8.20;99.90;;;;;;5044742;28;20433;-54
2023/10/15 04:11:30;;;;;;;3.03;1.97;;;8.20;99.90;;;;;;5037454;28;20495;-55
2023/10/15 04:14:08;;;;;;;7.00;2.60;;;8.20;99.90;;;;;;5037189;28;20448;-53
2023/10/15 04:16:34;;;;;;;6.17;2.20;;;8.20;99.90;;;;;;5038190;28;20437;-52
2023/10/15 04:19:00;;;;;;;6.40;2.37;;;8.20;99.90;;;;;;5047513;28;20449;-54
2023/10/15 04:21:26;;;;;;;5.27;2.57;;;8.20;99.90;;;;;;5045825;28;20195;-56
2023/10/15 04:23:56;;;;;;;5.43;2.40;;;8.20;99.90;;;;;;5041221;28;20852;-53
2023/10/15 04:26:26;;;;;;;3.07;2.00;;;8.20;99.90;;;;;;5039645;28;21096;-53
2023/10/15 04:28:53;;;;;;;7.70;2.37;;;8.20;99.90;;;;;;5046566;28;20422;-54
2023/10/15 04:31:29;;;;;;;8.17;2.67;;;8.20;99.90;;;;;;5043723;28;20539;-53
2023/10/15 04:33:55;;;;;;;11.10;2.10;;;8.20;99.90;;;;;;5043832;28;20426;-53
2023/10/15 04:36:22;;;;;;;3.20;2.27;;;8.10;99.90;;;;;;5050286;28;20496;-53
2023/10/15 04:38:52;;;;;;;9.07;2.70;;;8.20;99.90;;;;;;5043670;28;20348;-53
2023/10/15 04:41:22;;;;;;;7.73;2.47;;;8.20;99.90;;;;;;5039825;28;20498;-53
2023/10/15 04:43:47;;;;;;;12.07;2.57;;;8.20;99.90;;;;;;5042877;28;20437;-53
2023/10/15 04:46:17;;;;;;;6.93;2.27;;;8.10;99.90;;;;;;5052534;28;20426;-53
2023/10/15 04:48:45;;;;;;;4.13;1.90;;;8.10;99.90;;;;;;5051637;28;20201;-53
2023/10/15 04:51:12;;;;;;;3.53;2.10;;;8.10;99.90;;;;;;5043156;28;20465;-53
2023/10/15 04:53:44;;;;;;;13.13;2.67;;;8.10;99.90;;;;;;5040805;28;20468;-54
2023/10/15 04:56:10;;;;;;;8.17;2.47;;;8.00;99.90;;;;;;5037309;28;20430;-53
2023/10/15 04:58:36;;;;;;;6.83;2.00;;;8.00;99.90;;;;;;5035613;28;20449;-54
2023/10/15 05:01:04;;;;;;;10.40;2.70;;;8.00;99.90;;;;;;5041568;28;20765;-52
2023/10/15 05:03:31;;;;;;;3.37;1.90;;;8.10;99.90;;;;;;5039070;28;20225;-54
2023/10/15 05:06:04;;;;;;;3.50;2.47;;;8.00;99.90;;;;;;5045322;28;20525;-53
2023/10/15 05:08:30;;;;;;;4.57;2.43;;;8.00;99.90;;;;;;5042274;28;20509;-53
2023/10/15 05:10:56;;;;;;;3.70;2.20;;;8.00;99.90;;;;;;5033275;28;21070;-55
2023/10/15 05:13:24;;;;;;;12.90;2.60;;;8.00;99.90;;;;;;5046479;28;20191;-53
2023/10/15 05:15:50;;;;;;;6.03;2.80;;;8.00;99.90;;;;;;5039686;28;20499;-54
2023/10/15 05:18:18;;;;;;;5.23;2.50;;;8.00;99.90;;;;;;5040156;28;20437;-54
2023/10/15 05:20:44;;;;;;;3.53;2.00;;;8.00;99.90;;;;;;5038494;28;20580;-53
2023/10/15 05:23:11;;;;;;;5.97;2.67;;;8.00;99.90;;;;;;5038630;28;20440;-53
2023/10/15 05:25:40;;;;;;;4.30;1.90;;;8.00;99.90;;;;;;5038591;28;20430;-54
2023/10/15 05:28:06;;;;;;;3.20;2.20;;;8.00;99.90;;;;;;5039078;28;20430;-54
2023/10/15 05:30:32;;;;;;;4.63;2.10;;;8.00;99.90;;;;;;5036694;28;21024;-53
2023/10/15 05:33:00;;;;;;;4.70;2.77;;;8.00;99.90;;;;;;5041861;28;20441;-54
2023/10/15 05:35:27;;;;;;;4.17;2.00;;;8.10;99.90;;;;;;5039926;28;20692;-53
2023/10/15 05:37:54;;;;;;;4.70;2.10;;;8.10;99.90;;;;;;5040234;28;20568;-55
2023/10/15 05:40:23;;;;;;;6.67;2.70;;;8.00;99.90;;;;;;5038987;28;21082;-54
2023/10/15 05:42:49;;;;;;;8.33;2.23;;;8.00;99.90;;;;;;5038079;28;20433;-53
2023/10/15 05:45:20;;;;;;;7.60;2.60;;;8.00;99.90;;;;;;5039711;28;20429;-55
2023/10/15 05:47:46;;;;;;;3.80;2.00;;;8.00;99.90;;;;;;5037521;28;20541;-53
2023/10/15 05:50:12;;;;;;;4.23;1.97;;;8.00;99.90;;;;;;5038805;28;20568;-54
2023/10/15 05:52:40;;;;;;;3.00;1.97;;;8.00;99.90;;;;;;5038269;28;20194;-54
2023/10/15 05:55:06;;;;;;;6.10;2.30;;;8.10;99.90;;;;;;5040840;28;20429;-54
2023/10/15 05:57:33;;;;;;;4.57;2.27;;;8.10;99.90;;;;;;5041886;28;20494;-52
2023/10/15 06:00:17;;;;;;;3.73;1.80;;;8.10;99.90;;;;;;5040866;28;20222;-52
2023/10/15 06:02:52;;;;;;;7.03;2.30;;;8.10;99.90;;;;;;5043330;28;21011;-53
2023/10/15 06:05:17;;;;;;;4.80;2.23;;;8.10;99.90;;;;;;5043546;28;20420;-54
2023/10/15 06:07:44;;;;;;;5.00;2.50;;;8.10;99.90;;;;;;5043577;28;20435;-54
2023/10/15 06:10:11;;;;;;;5.90;2.30;;;8.10;99.90;;;;;;5043528;28;20839;-53
2023/10/15 06:12:38;;;;;;;3.97;1.87;;;8.20;99.90;;;;;;5042596;28;20998;-54
2023/10/15 06:15:06;;;;;;;3.80;1.93;;;8.10;99.90;;;;;;5040422;28;20966;-55
2023/10/15 06:17:32;;;;;;;4.60;2.50;;;8.20;99.90;;;;;;5047983;28;20422;-54
2023/10/15 06:19:58;;;;;;;6.23;2.30;;;8.20;99.90;;;;;;5048302;28;20491;-54
2023/10/15 06:22:25;;;;;;;6.90;2.00;;;8.20;99.90;;;;;;5053718;28;20439;-53
2023/10/15 06:24:52;;;;;;;4.30;1.97;;;8.20;99.90;;;;;;5052945;28;20425;-54
2023/10/15 06:27:18;;;;;;;8.23;2.73;;;8.20;99.90;;;;;;5047879;28;20405;-54
2023/10/15 06:29:44;;;;;;;4.13;2.30;;;8.10;99.90;;;;;;5049276;28;20424;-54
2023/10/15 06:32:10;;;;;;;5.83;2.43;;;8.10;99.90;;;;;;5050629;28;20425;-54
2023/10/15 06:34:39;;;;;;;5.40;2.60;;;8.00;99.90;;;;;;5047280;28;20183;-54
2023/10/15 06:37:08;;;;;;;5.60;2.90;;;8.00;99.90;;;;;;5053417;28;20425;-54
2023/10/15 06:39:34;;;;;;;6.20;2.70;;;8.00;99.90;;;;;;5051739;28;20445;-53
2023/10/15 06:42:00;;;;;;;3.73;2.40;;;8.00;99.90;;;;;;5050296;28;21033;-52
2023/10/15 06:44:26;;;;;;;5.20;2.60;;;8.10;99.90;;;;;;5051779;28;20439;-55
2023/10/15 06:46:51;;;;;;;3.87;2.10;;;8.10;99.90;;;;;;5048677;28;20420;-53
2023/10/15 06:49:18;;;;;;;8.60;2.80;;;8.10;99.90;;;;;;5047660;28;20207;-53
2023/10/15 06:51:44;;;;;;;9.40;2.60;;;8.20;99.90;;;;;;5074442;22;20251;-58
2023/10/15 06:54:11;;;;;;;11.53;4.70;;;8.20;99.90;;;;;;5079941;28;20510;-59
2023/10/15 06:56:37;;;;;;;7.80;3.10;;;8.30;99.90;;;;;;5081921;28;20200;-59
2023/10/15 06:59:03;;;;;;;6.30;2.70;;;8.30;99.90;;;;;;5081561;28;20584;-59
2023/10/15 07:01:30;;;;;;;4.27;3.07;;;8.40;99.90;;;;;;5080926;28;20588;-59
2023/10/15 07:03:56;;;;;;;5.50;2.50;;;8.40;99.90;;;;;;5087030;28;20162;-59
2023/10/15 07:06:22;;;;;;;4.90;3.00;;;8.40;99.90;;;;;;5084041;28;20519;-58
2023/10/15 07:08:49;;;;;;;7.20;2.70;;;8.40;99.90;;;;;;5085274;28;20432;-56
2023/10/15 07:11:15;;;;;;;4.53;2.20;;;8.40;99.90;;;;;;5083309;28;20454;-58
2023/10/15 07:13:40;;;;;;;5.50;1.80;;;8.30;99.90;;;;;;5087462;28;20419;-59
2023/10/15 07:16:06;;;;;;;4.97;2.53;;;8.30;99.90;;;;;;5084036;28;20692;-59
2023/10/15 07:18:33;;;;;;;3.80;2.80;;;8.20;99.90;;;;;;5083270;28;20646;-59
2023/10/15 07:20:59;;;;;;;7.80;1.67;;;8.20;99.90;;;;;;5085747;28;21126;-58
2023/10/15 07:23:25;;;;;;;1.40;1.30;;;8.10;99.90;;;;;;5087047;28;20408;-59
2023/10/15 07:25:51;;;;;;;1.93;1.20;;;8.00;99.90;;;;;;5082694;28;20193;-59
2023/10/15 07:28:16;;;;;;;3.17;2.40;;;8.00;99.90;;;;;;5086553;28;20174;-58
2023/10/15 07:30:42;;;;;;;3.27;2.33;;;8.00;99.90;;;;;;5086632;28;20465;-58
2023/10/15 07:33:08;;;;;;;4.40;2.10;;;8.00;99.90;;;;;;5084856;28;20428;-59
2023/10/15 07:35:35;;;;;;;2.20;1.87;;;8.00;99.90;;;;;;5087222;28;20185;-59
2023/10/15 07:38:04;;;;;;;2.37;1.60;;;8.10;99.90;;;;;;5085048;28;20174;-58
2023/10/15 07:40:32;;;;;;;1.93;1.70;;;8.10;99.90;;;;;;5084767;28;21118;-59
2023/10/15 07:42:59;;;;;;;2.10;1.33;;;8.10;99.90;;;;;;5086617;28;20443;-59
2023/10/15 07:45:29;;;;;;;3.50;1.83;;;8.10;99.90;;;;;;5084887;28;20432;-59
2023/10/15 07:47:56;;;;;;;1.50;1.20;;;8.10;99.90;;;;;;5085959;28;20985;-57
2023/10/15 07:50:25;;;;;;;2.00;1.20;;;8.10;99.90;;;;;;5081782;28;20428;-59
2023/10/15 07:52:51;;;;;;;2.13;1.33;;;8.20;99.90;;;;;;5086330;28;20492;-60
2023/10/15 07:55:17;;;;;;;2.50;1.77;;;8.20;99.90;;;;;;5084915;28;20422;-60
2023/10/15 07:57:44;;;;;;;2.80;1.30;;;8.20;99.90;;;;;;5085429;28;20458;-58
2023/10/15 08:00:15;;;;;;;3.67;1.57;;;8.20;99.90;;;;;;5084297;28;20455;-59
2023/10/15 08:02:49;;;;;;;1.83;1.70;;;8.30;99.90;;;;;;5076598;28;20454;-58
2023/10/15 08:05:15;;;;;;;1.87;1.47;;;8.30;99.90;;;;;;5073910;28;20436;-56
2023/10/15 08:07:41;;;;;;;3.70;1.67;;;8.40;99.90;;;;;;5079313;28;20423;-56
2023/10/15 08:10:08;;;;;;;1.60;1.47;;;8.50;99.90;;;;;;5079554;28;20680;-57
2023/10/15 08:12:34;;;;;;;1.57;1.40;;;8.50;99.90;;;;;;5081756;28;20458;-57
2023/10/15 08:15:00;;;;;;;2.30;1.40;;;8.60;99.90;;;;;;5081674;28;20427;-58
2023/10/15 08:17:26;;;;;;;2.97;1.70;;;8.60;99.90;;;;;;5083352;28;20177;-59
2023/10/15 08:19:53;;;;;;;2.60;2.30;;;8.70;99.90;;;;;;5078231;28;20203;-60
2023/10/15 08:22:19;;;;;;;2.60;1.80;;;8.80;99.90;;;;;;5084127;28;20730;-58
2023/10/15 08:24:45;;;;;;;1.83;1.70;;;8.80;99.90;;;;;;5077994;28;21005;-59
2023/10/15 08:27:13;;;;;;;3.70;1.60;;;8.90;99.90;;;;;;5079321;28;20162;-58
2023/10/15 08:29:42;;;;;;;2.40;1.50;;;8.90;99.90;;;;;;5083061;28;20431;-58
2023/10/15 08:32:17;;;;;;;1.70;1.50;;;8.90;99.90;;;;;;5080567;28;20479;-61
2023/10/15 08:34:47;;;;;;;2.23;1.47;;;8.90;99.90;;;;;;5084703;28;20925;-59
2023/10/15 08:37:13;;;;;;;4.40;1.60;;;8.90;99.90;;;;;;5074996;28;20427;-59
2023/10/15 08:39:39;;;;;;;5.00;2.00;;;8.90;99.90;;;;;;5079169;28;20455;-60
2023/10/15 08:42:20;;;;;;;3.03;1.97;;;8.90;99.90;;;;;;5081445;28;20201;-57
2023/10/15 08:44:48;;;;;;;2.17;1.87;;;8.90;99.90;;;;;;5079089;28;21090;-61
2023/10/15 08:47:14;;;;;;;4.90;1.90;;;9.00;99.90;;;;;;5084461;28;21170;-61
2023/10/15 08:49:45;;;;;;;2.90;1.63;;;9.00;99.90;;;;;;5081554;28;20423;-57
2023/10/15 08:52:12;;;;;;;2.13;1.50;;;9.10;99.90;;;;;;5080440;28;20236;-57
2023/10/15 08:54:40;;;;;;;4.23;1.90;;;9.20;99.90;;;;;;5080780;28;20810;-59
2023/10/15 08:57:07;;;;;;;6.10;1.90;;;9.20;99.90;;;;;;5079664;28;20930;-60
2023/10/15 08:59:33;;;;;;;3.33;1.80;;;9.30;99.90;;;;;;5083788;28;20455;-58
2023/10/15 09:01:59;;;;;;;1.93;1.73;;;9.40;99.90;;;;;;5080272;28;20451;-58
2023/10/15 09:04:27;;;;;;;6.73;2.10;;;9.40;99.90;;;;;;5086888;28;20170;-58
2023/10/15 09:06:53;;;;;;;3.07;1.60;;;9.40;99.90;;;;;;5081699;28;20261;-58
2023/10/15 09:09:19;;;;;;;1.60;1.50;;;9.20;99.90;;;;;;5081928;28;20431;-58
2023/10/15 09:11:45;;;;;;;2.40;2.00;;;9.10;99.90;;;;;;5078847;28;20471;-60
2023/10/15 09:14:13;;;;;;;4.40;2.00;;;9.00;99.90;;;;;;5082795;28;20180;-58
2023/10/15 09:16:48;;;;;;;3.50;2.00;;;9.00;99.90;;;;;;5087381;28;20339;-58
2023/10/15 09:19:14;;;;;;;1.97;1.73;;;8.90;99.90;;;;;;5081726;28;20458;-58
2023/10/15 09:21:40;;;;;;;3.57;1.63;;;8.90;99.90;;;;;;5079659;28;21133;-58
2023/10/15 09:24:06;;;;;;;1.87;1.67;;;8.80;99.90;;;;;;5082792;28;20881;-58
2023/10/15 09:26:38;;;;;;;4.37;1.90;;;8.80;99.90;;;;;;5082622;28;20177;-57
2023/10/15 09:29:19;;;;;;;2.83;1.90;;;8.90;99.90;;;;;;5084470;28;20422;-59
2023/10/15 09:31:45;;;;;;;2.90;1.80;;;9.10;99.90;;;;;;5092421;28;20442;-59
2023/10/15 09:34:14;;;;;;;5.50;2.40;;;9.30;99.90;;;;;;5087659;28;20424;-58
2023/10/15 09:36:40;;;;;;;6.40;2.00;;;9.40;99.90;;;;;;5086758;28;20497;-58
2023/10/15 09:39:12;;;;;;;4.90;1.90;;;9.50;99.90;;;;;;5093147;28;20455;-59
2023/10/15 09:41:41;;;;;;;4.33;2.10;;;9.50;99.90;;;;;;5086785;28;20442;-57
2023/10/15 09:44:14;;;;;;;3.53;2.10;;;9.60;99.90;;;;;;5084502;28;20527;-59
2023/10/15 09:46:44;;;;;;;2.90;1.80;;;9.50;99.90;;;;;;5085368;28;21073;-58
2023/10/15 09:49:10;;;;;;;7.67;2.20;;;9.50;99.90;;;;;;5091812;28;20467;-58
2023/10/15 09:51:40;;;;;;;5.30;1.90;;;9.50;99.90;;;;;;5087450;28;21000;-59
2023/10/15 09:54:11;;;;;;;4.43;2.00;;;9.50;99.90;;;;;;5074576;28;20434;-58
2023/10/15 09:56:40;;;;;;;3.30;1.80;;;9.50;99.90;;;;;;5073880;28;20466;-58
2023/10/15 09:59:07;;;;;;;6.63;1.73;;;9.50;99.90;;;;;;5081172;28;20487;-56
2023/10/15 10:01:36;;;;;;;2.40;1.60;;;9.50;99.90;;;;;;5082749;28;20466;-58
2023/10/15 10:04:43;;;;;;;9.17;1.97;;;9.50;99.90;;;;;;5083051;28;20455;-58
2023/10/15 10:07:50;;;;;;;2.10;1.70;;;9.60;99.90;;;;;;5085017;28;20431;-60
2023/10/15 10:11:04;;;;;;;3.93;2.33;;;9.70;99.90;;;;;;5075236;28;20926;-58
2023/10/15 10:13:49;;;;;;;3.30;2.00;;;9.70;99.90;;;;;;5073881;28;20972;-59
2023/10/15 10:16:23;;;;;;;3.60;2.00;;;9.80;99.90;;;;;;5083408;28;20492;-58
2023/10/15 10:18:49;;;;;;;3.70;2.07;;;10.00;99.90;;;;;;5082138;28;20458;-59
2023/10/15 10:21:16;;;;;;;7.80;2.40;;;10.10;97.60;;;;;;5085663;28;20451;-60
2023/10/15 10:23:43;;;;;;;5.37;2.80;;;10.10;91.40;;;;;;5085462;28;20427;-58
2023/10/15 10:26:13;;;;;;;4.77;2.37;;;10.10;95.20;;;;;;5085006;28;20431;-59
2023/10/15 10:28:40;;;;;;;3.43;2.17;;;10.00;96.30;;;;;;5084836;28;20554;-58
2023/10/15 10:31:07;;;;;;;3.83;2.10;;;10.00;94.20;;;;;;5082263;28;20897;-60
2023/10/15 10:33:42;;;;;;;5.40;2.03;;;10.00;94.80;;;;;;5086306;28;20419;-60
2023/10/15 10:36:15;;;;;;;4.43;2.53;;;10.00;94.50;;;;;;5090295;27;20455;-61
2023/10/15 10:38:41;;;;;;;4.67;2.13;;;10.00;91.20;;;;;;5082009;28;20425;-61
2023/10/15 10:41:14;;;;;;;5.83;2.90;;;10.00;84.30;;;;;;5081585;28;20514;-60
2023/10/15 10:43:45;;;;;;;2.83;1.60;;;9.90;81.50;;;;;;5082548;28;20427;-60
2023/10/15 10:46:23;;;;;;;6.27;1.97;;;9.90;78.00;;;;;;5079816;28;20463;-59
2023/10/15 10:49:03;;;;;;;8.47;2.77;;;9.80;75.30;;;;;;5080757;28;20416;-60
2023/10/15 10:51:35;;;;;;;8.40;2.67;;;9.80;77.90;;;;;;5082373;28;20463;-60
2023/10/15 10:54:03;;;;;;;4.13;2.00;;;9.90;79.50;;;;;;5085584;28;20515;-60
2023/10/15 10:56:40;;;;;;;6.70;2.07;;;9.90;76.40;;;;;;5080344;28;20488;-61
2023/10/15 10:59:07;;;;;;;1.67;1.57;;;9.90;76.20;;;;;;5084878;28;20451;-60
2023/10/15 11:01:37;;;;;;;4.43;2.10;;;10.00;74.90;;;;;;5085111;28;20474;-60
2023/10/15 11:04:04;;;;;;;4.97;1.80;;;10.40;80.10;;;;;;5079858;28;20422;-61
2023/10/15 11:06:29;;;;;;;3.83;1.73;;;10.80;76.30;;;;;;5080781;28;20452;-61
2023/10/15 11:08:55;;;;;;;5.70;2.37;;;11.00;70.50;;;;;;5081397;28;22902;-59
2023/10/15 11:11:21;;;;;;;4.93;2.03;;;10.90;68.60;;;;;;5084706;28;20228;-61
2023/10/15 11:13:49;;;;;;;4.53;2.03;;;11.00;71.20;;;;;;5086860;28;20776;-59
2023/10/15 11:16:15;;;;;;;7.37;2.47;;;11.30;71.30;;;;;;5077172;28;20181;-60
2023/10/15 11:18:43;;;;;;;5.13;1.67;;;11.70;68.10;;;;;;5081756;28;20435;-60
2023/10/15 11:21:09;;;;;;;7.10;1.77;;;12.20;66.50;;;;;;5087534;28;20431;-62
2023/10/15 11:23:34;;;;;;;2.60;1.70;;;12.70;66.30;;;;;;5088386;28;20424;-61
2023/10/15 11:26:00;;;;;;;8.43;2.47;;;13.10;65.10;;;;;;5080759;28;20293;-59
2023/10/15 11:28:26;;;;;;;3.47;1.57;;;13.50;61.40;;;;;;5083400;28;20624;-59
2023/10/15 11:30:53;;;;;;;3.97;1.50;;;13.90;58.50;;;;;;5074531;28;20245;-59
2023/10/15 11:33:19;;;;;;;2.30;1.63;;;14.10;54.70;;;;;;5082050;28;20177;-57
2023/10/15 11:35:51;;;;;;;3.27;1.50;;;13.70;54.60;;;;;;5090023;28;20433;-58
2023/10/15 11:38:17;;;;;;;3.33;2.13;;;13.20;55.10;;;;;;5085789;28;20177;-60
2023/10/15 11:40:45;;;;;;;6.40;2.17;;;12.80;55.50;;;;;;5078537;28;20471;-56
2023/10/15 11:43:17;;;;;;;3.20;1.80;;;12.40;55.70;;;;;;5077943;28;20188;-59
2023/10/15 11:45:44;;;;;;;2.60;1.50;;;11.90;55.90;;;;;;5082498;28;20522;-59
2023/10/15 11:48:14;;;;;;;5.63;1.87;;;11.60;56.60;;;;;;5077207;28;20442;-57
2023/10/15 11:50:41;;;;;;;2.57;1.37;;;11.40;58.00;;;;;;5080527;28;20439;-56
2023/10/15 11:53:23;;;;;;;2.10;1.10;;;11.10;58.70;;;;;;5077250;28;20474;-57
2023/10/15 11:55:53;;;;;;;2.77;1.70;;;10.80;60.00;;;;;;5090410;28;21035;-57
2023/10/15 11:58:19;;;;;;;5.50;1.53;;;10.60;60.50;;;;;;5072776;28;20444;-60
2023/10/15 12:00:48;;;;;;;1.97;1.40;;;10.40;62.30;;;;;;5079785;28;20519;-60
2023/10/15 12:03:20;;;;;;;1.77;1.30;;;10.20;63.10;;;;;;5084472;28;20447;-61
2023/10/15 12:05:46;;;;;;;4.43;1.30;;;10.10;63.50;;;;;;5079633;28;20489;-60
2023/10/15 12:08:16;;;;;;;2.90;1.50;;;10.00;65.00;;;;;;5089214;28;20419;-60
2023/10/15 12:10:42;;;;;;;3.27;2.37;;;10.00;66.00;;;;;;5085260;28;21749;-59
2023/10/15 12:13:09;;;;;;;4.33;2.03;;;9.90;68.90;;;;;;5083129;28;20454;-62
2023/10/15 12:15:35;;;;;;;2.07;1.80;;;10.00;69.80;;;;;;5083495;28;20428;-60
2023/10/15 12:18:02;;;;;;;2.83;1.63;;;10.00;67.30;;;;;;5085676;28;20416;-59
2023/10/15 12:20:28;;;;;;;2.60;1.90;;;10.00;67.20;;;;;;5082428;28;20206;-60
2023/10/15 12:22:54;;;;;;;2.90;1.63;;;9.90;67.80;;;;;;5080227;28;20534;-60
2023/10/15 12:25:20;;;;;;;4.37;2.20;;;9.90;68.10;;;;;;5071309;28;20530;-60
2023/10/15 12:27:45;;;;;;;4.57;2.30;;;10.00;66.10;;;;;;5081382;28;20431;-59
2023/10/15 12:30:23;;;;;;;7.13;2.50;;;10.00;64.70;;;;;;5086596;28;20182;-60
2023/10/15 12:32:55;;;;;;;7.67;2.13;;;10.20;66.00;;;;;;5077795;28;20205;-60
2023/10/15 12:35:21;;;;;;;4.10;2.23;;;10.60;65.70;;;;;;5085139;28;20781;-60
2023/10/15 12:38:05;;;;;;;5.43;2.20;;;11.20;65.50;;;;;;5086698;28;20423;-61
2023/10/15 12:40:31;;;;;;;2.63;1.90;;;12.00;63.00;;;;;;5081385;28;20459;-60
2023/10/15 12:42:59;;;;;;;1.93;1.73;;;12.90;58.60;;;;;;5089861;28;20464;-59
2023/10/15 12:45:25;;;;;;;5.53;1.90;;;13.60;54.40;;;;;;5087819;28;20424;-59
2023/10/15 12:47:50;;;;;;;2.73;1.53;;;14.10;52.50;;;;;;5081545;28;20426;-58
2023/10/15 12:50:16;;;;;;;5.73;2.00;;;14.20;51.20;;;;;;5086628;28;20252;-59
2023/10/15 12:52:47;;;;;;;4.10;2.10;;;14.60;51.10;;;;;;5083216;28;20225;-59
2023/10/15 12:55:18;;;;;;;4.33;1.63;;;14.70;48.60;;;;;;5083879;28;20974;-59
2023/10/15 12:57:46;;;;;;;4.87;1.70;;;14.70;49.10;;;;;;5076658;28;20446;-61
2023/10/15 13:00:17;;;;;;;2.97;1.90;;;14.80;48.90;;;;;;5081636;28;20567;-59
2023/10/15 13:02:49;;;;;;;2.63;1.53;;;14.60;49.10;;;;;;5092085;22;20619;-56
2023/10/15 13:05:15;;;;;;;3.20;1.50;;;14.40;50.00;;;;;;5040045;28;20529;-54
2023/10/15 13:07:41;;;;;;;3.90;1.90;;;14.30;50.50;;;;;;5043297;28;20440;-55
2023/10/15 13:10:09;;;;;;;4.30;1.80;;;14.00;50.20;;;;;;5035388;28;20442;-57
2023/10/15 13:12:36;;;;;;;2.70;2.00;;;13.60;49.90;;;;;;5038261;28;20461;-55
2023/10/15 13:15:02;;;;;;;4.67;2.10;;;13.00;51.30;;;;;;5022930;28;20434;-55